sensor_id;sensor_type;location;lat;lon;timestamp;temperature;humidity
53962;DHT22;39868;53.398;6.564;2023-08-08T00:02:26;17.60;73.70
53962;DHT22;39868;53.398;6.564;2023-08-08T00:04:54;17.50;74.20
53962;DHT22;39868;53.398;6.564;2023-08-08T00:07:21;17.50;73.60
53962;DHT22;39868;53.398;6.564;2023-08-08T00:09:48;17.50;73.60
53962;DHT22;39868;53.398;6.564;2023-08-08T00:12:15;17.50;73.60
53962;DHT22;39868;53.398;6.564;2023-08-08T00:14:42;17.50;73.60
53962;DHT22;39868;53.398;6.564;2023-08-08T00:17:10;17.50;74.20
53962;DHT22;39868;53.398;6.564;2023-08-08T00:19:37;17.50;73.60
53962;DHT22;39868;53.398;6.564;2023-08-08T00:22:04;17.50;74.20
53962;DHT22;39868;53.398;6.564;2023-08-08T00:24:31;17.40;73.60
53962;DHT22;39868;53.398;6.564;2023-08-08T00:26:59;17.40;73.50
53962;DHT22;39868;53.398;6.564;2023-08-08T00:29:26;17.40;73.50
53962;DHT22;39868;53.398;6.564;2023-08-08T00:31:53;17.40;73.50
53962;DHT22;39868;53.398;6.564;2023-08-08T00:34:20;17.40;73.50
53962;DHT22;39868;53.398;6.564;2023-08-08T00:36:48;17.30;73.40
53962;DHT22;39868;53.398;6.564;2023-08-08T00:39:16;17.30;73.40
53962;DHT22;39868;53.398;6.564;2023-08-08T00:41:43;17.30;73.40
53962;DHT22;39868;53.398;6.564;2023-08-08T00:44:10;17.30;73.40
53962;DHT22;39868;53.398;6.564;2023-08-08T00:46:37;17.30;73.40
53962;DHT22;39868;53.398;6.564;2023-08-08T00:49:04;17.20;73.40
53962;DHT22;39868;53.398;6.564;2023-08-08T00:51:32;17.20;73.40
53962;DHT22;39868;53.398;6.564;2023-08-08T00:53:59;17.20;73.50
53962;DHT22;39868;53.398;6.564;2023-08-08T00:56:26;17.20;73.60
53962;DHT22;39868;53.398;6.564;2023-08-08T00:58:54;17.10;73.60
53962;DHT22;39868;53.398;6.564;2023-08-08T01:01:21;17.10;73.60
53962;DHT22;39868;53.398;6.564;2023-08-08T01:03:48;17.10;73.60
53962;DHT22;39868;53.398;6.564;2023-08-08T01:07:01;17.10;73.70
53962;DHT22;39868;53.398;6.564;2023-08-08T01:11:52;17.00;73.80
53962;DHT22;39868;53.398;6.564;2023-08-08T01:14:19;17.00;74.00
53962;DHT22;39868;53.398;6.564;2023-08-08T01:16:47;17.00;74.00
53962;DHT22;39868;53.398;6.564;2023-08-08T01:19:18;16.90;74.20
53962;DHT22;39868;53.398;6.564;2023-08-08T01:21:52;16.90;74.00
53962;DHT22;39868;53.398;6.564;2023-08-08T01:24:23;16.90;74.00
53962;DHT22;39868;53.398;6.564;2023-08-08T01:26:52;16.90;74.10
53962;DHT22;39868;53.398;6.564;2023-08-08T01:29:20;16.90;74.10
53962;DHT22;39868;53.398;6.564;2023-08-08T01:31:47;16.90;74.20
53962;DHT22;39868;53.398;6.564;2023-08-08T01:34:14;16.90;74.20
53962;DHT22;39868;53.398;6.564;2023-08-08T01:36:46;16.90;74.20
53962;DHT22;39868;53.398;6.564;2023-08-08T01:39:17;16.90;74.80
53962;DHT22;39868;53.398;6.564;2023-08-08T01:41:47;16.90;74.30
53962;DHT22;39868;53.398;6.564;2023-08-08T01:44:15;16.90;74.40
53962;DHT22;39868;53.398;6.564;2023-08-08T01:46:44;16.90;74.40
53962;DHT22;39868;53.398;6.564;2023-08-08T01:49:13;16.90;74.40
53962;DHT22;39868;53.398;6.564;2023-08-08T01:51:40;16.90;74.50
53962;DHT22;39868;53.398;6.564;2023-08-08T01:54:08;16.90;74.50
53962;DHT22;39868;53.398;6.564;2023-08-08T01:56:35;16.90;74.50
53962;DHT22;39868;53.398;6.564;2023-08-08T01:59:02;16.90;74.60
53962;DHT22;39868;53.398;6.564;2023-08-08T02:01:29;16.90;74.60
53962;DHT22;39868;53.398;6.564;2023-08-08T02:03:56;16.90;74.70
53962;DHT22;39868;53.398;6.564;2023-08-08T02:06:23;16.90;74.70
53962;DHT22;39868;53.398;6.564;2023-08-08T02:08:51;16.90;74.70
53962;DHT22;39868;53.398;6.564;2023-08-08T02:11:18;16.90;74.70
53962;DHT22;39868;53.398;6.564;2023-08-08T02:13:45;16.90;74.80
53962;DHT22;39868;53.398;6.564;2023-08-08T02:16:13;16.90;74.80
53962;DHT22;39868;53.398;6.564;2023-08-08T02:18:40;17.00;75.00
53962;DHT22;39868;53.398;6.564;2023-08-08T02:21:08;17.00;75.00
53962;DHT22;39868;53.398;6.564;2023-08-08T02:23:35;17.00;75.10
53962;DHT22;39868;53.398;6.564;2023-08-08T02:26:03;17.00;75.10
53962;DHT22;39868;53.398;6.564;2023-08-08T02:28:30;17.00;75.20
53962;DHT22;39868;53.398;6.564;2023-08-08T02:30:57;17.00;75.30
53962;DHT22;39868;53.398;6.564;2023-08-08T02:33:25;17.00;75.30
53962;DHT22;39868;53.398;6.564;2023-08-08T02:35:52;17.00;75.40
53962;DHT22;39868;53.398;6.564;2023-08-08T02:38:19;17.00;75.40
53962;DHT22;39868;53.398;6.564;2023-08-08T02:40:46;17.00;75.40
53962;DHT22;39868;53.398;6.564;2023-08-08T02:43:14;17.00;75.70
53962;DHT22;39868;53.398;6.564;2023-08-08T02:45:41;17.00;75.70
53962;DHT22;39868;53.398;6.564;2023-08-08T02:48:08;17.10;75.80
53962;DHT22;39868;53.398;6.564;2023-08-08T02:50:36;17.10;75.70
53962;DHT22;39868;53.398;6.564;2023-08-08T02:53:03;17.10;75.80
53962;DHT22;39868;53.398;6.564;2023-08-08T02:55:36;17.10;75.80
53962;DHT22;39868;53.398;6.564;2023-08-08T02:58:03;17.10;75.70
53962;DHT22;39868;53.398;6.564;2023-08-08T03:00:32;17.10;75.80
53962;DHT22;39868;53.398;6.564;2023-08-08T03:03:01;17.20;75.80
53962;DHT22;39868;53.398;6.564;2023-08-08T03:05:28;17.20;75.90
53962;DHT22;39868;53.398;6.564;2023-08-08T03:07:55;17.20;76.00
53962;DHT22;39868;53.398;6.564;2023-08-08T03:10:25;17.20;75.80
53962;DHT22;39868;53.398;6.564;2023-08-08T03:12:52;17.20;75.80
53962;DHT22;39868;53.398;6.564;2023-08-08T03:15:20;17.20;75.80
53962;DHT22;39868;53.398;6.564;2023-08-08T03:17:48;17.20;75.80
53962;DHT22;39868;53.398;6.564;2023-08-08T03:20:17;17.20;75.70
53962;DHT22;39868;53.398;6.564;2023-08-08T03:22:44;17.30;75.80
53962;DHT22;39868;53.398;6.564;2023-08-08T03:25:11;17.30;75.80
53962;DHT22;39868;53.398;6.564;2023-08-08T03:27:39;17.30;75.70
53962;DHT22;39868;53.398;6.564;2023-08-08T03:30:09;17.30;75.70
53962;DHT22;39868;53.398;6.564;2023-08-08T03:32:40;17.30;75.70
53962;DHT22;39868;53.398;6.564;2023-08-08T03:35:07;17.30;75.70
53962;DHT22;39868;53.398;6.564;2023-08-08T03:37:39;17.20;75.60
53962;DHT22;39868;53.398;6.564;2023-08-08T03:40:06;17.20;75.60
53962;DHT22;39868;53.398;6.564;2023-08-08T03:42:34;17.20;75.70
53962;DHT22;39868;53.398;6.564;2023-08-08T03:45:02;17.20;75.60
53962;DHT22;39868;53.398;6.564;2023-08-08T03:47:29;17.20;75.80
53962;DHT22;39868;53.398;6.564;2023-08-08T03:49:56;17.20;75.80
53962;DHT22;39868;53.398;6.564;2023-08-08T03:52:25;17.20;75.80
53962;DHT22;39868;53.398;6.564;2023-08-08T03:54:52;17.10;75.70
53962;DHT22;39868;53.398;6.564;2023-08-08T03:57:21;17.20;75.80
53962;DHT22;39868;53.398;6.564;2023-08-08T03:59:48;17.10;75.70
53962;DHT22;39868;53.398;6.564;2023-08-08T04:02:15;17.10;75.70
53962;DHT22;39868;53.398;6.564;2023-08-08T04:04:42;17.10;75.80
53962;DHT22;39868;53.398;6.564;2023-08-08T04:07:10;17.10;75.80
53962;DHT22;39868;53.398;6.564;2023-08-08T04:09:37;17.10;75.80
53962;DHT22;39868;53.398;6.564;2023-08-08T04:12:04;17.00;75.70
53962;DHT22;39868;53.398;6.564;2023-08-08T04:14:32;17.00;75.70
53962;DHT22;39868;53.398;6.564;2023-08-08T04:16:59;17.00;75.90
53962;DHT22;39868;53.398;6.564;2023-08-08T04:19:26;17.00;75.80
53962;DHT22;39868;53.398;6.564;2023-08-08T04:21:53;17.00;75.80
53962;DHT22;39868;53.398;6.564;2023-08-08T04:24:20;16.90;75.70
53962;DHT22;39868;53.398;6.564;2023-08-08T04:26:47;17.00;75.80
53962;DHT22;39868;53.398;6.564;2023-08-08T04:29:15;17.00;75.80
53962;DHT22;39868;53.398;6.564;2023-08-08T04:31:42;16.90;75.70
53962;DHT22;39868;53.398;6.564;2023-08-08T04:34:09;16.90;75.60
53962;DHT22;39868;53.398;6.564;2023-08-08T04:36:36;16.90;75.60
53962;DHT22;39868;53.398;6.564;2023-08-08T04:39:03;16.90;75.60
53962;DHT22;39868;53.398;6.564;2023-08-08T04:41:30;16.90;75.60
53962;DHT22;39868;53.398;6.564;2023-08-08T04:43:57;16.90;75.70
53962;DHT22;39868;53.398;6.564;2023-08-08T04:46:24;16.90;75.70
53962;DHT22;39868;53.398;6.564;2023-08-08T04:48:52;16.80;75.60
53962;DHT22;39868;53.398;6.564;2023-08-08T04:51:21;16.80;75.60
53962;DHT22;39868;53.398;6.564;2023-08-08T04:53:48;16.80;75.70
53962;DHT22;39868;53.398;6.564;2023-08-08T04:56:15;16.80;75.70
53962;DHT22;39868;53.398;6.564;2023-08-08T04:58:42;16.70;75.70
53962;DHT22;39868;53.398;6.564;2023-08-08T05:01:09;16.70;75.80
53962;DHT22;39868;53.398;6.564;2023-08-08T05:03:41;16.70;75.80
53962;DHT22;39868;53.398;6.564;2023-08-08T05:06:08;16.70;75.90
53962;DHT22;39868;53.398;6.564;2023-08-08T05:08:36;16.70;76.00
53962;DHT22;39868;53.398;6.564;2023-08-08T05:11:03;16.70;76.00
53962;DHT22;39868;53.398;6.564;2023-08-08T05:13:30;16.70;76.10
53962;DHT22;39868;53.398;6.564;2023-08-08T05:15:57;16.80;76.30
53962;DHT22;39868;53.398;6.564;2023-08-08T05:18:24;16.80;76.50
53962;DHT22;39868;53.398;6.564;2023-08-08T05:20:51;16.80;76.60
53962;DHT22;39868;53.398;6.564;2023-08-08T05:23:19;16.80;76.80
53962;DHT22;39868;53.398;6.564;2023-08-08T05:25:46;16.90;77.20
53962;DHT22;39868;53.398;6.564;2023-08-08T05:28:14;16.90;77.40
53962;DHT22;39868;53.398;6.564;2023-08-08T05:30:41;16.90;77.60
53962;DHT22;39868;53.398;6.564;2023-08-08T05:33:08;17.00;77.70
53962;DHT22;39868;53.398;6.564;2023-08-08T05:35:35;17.10;77.80
53962;DHT22;39868;53.398;6.564;2023-08-08T05:38:02;17.10;77.90
53962;DHT22;39868;53.398;6.564;2023-08-08T05:40:30;17.10;77.80
53962;DHT22;39868;53.398;6.564;2023-08-08T05:42:57;17.20;77.80
53962;DHT22;39868;53.398;6.564;2023-08-08T05:45:24;17.20;77.80
53962;DHT22;39868;53.398;6.564;2023-08-08T05:47:51;17.20;77.70
53962;DHT22;39868;53.398;6.564;2023-08-08T05:50:19;17.30;77.80
53962;DHT22;39868;53.398;6.564;2023-08-08T05:52:46;17.30;78.00
53962;DHT22;39868;53.398;6.564;2023-08-08T05:55:13;17.30;78.00
53962;DHT22;39868;53.398;6.564;2023-08-08T05:57:40;17.40;78.00
53962;DHT22;39868;53.398;6.564;2023-08-08T06:00:08;17.30;77.90
53962;DHT22;39868;53.398;6.564;2023-08-08T06:02:41;17.40;78.00
53962;DHT22;39868;53.398;6.564;2023-08-08T06:05:10;17.40;78.00
53962;DHT22;39868;53.398;6.564;2023-08-08T06:07:37;17.50;78.00
53962;DHT22;39868;53.398;6.564;2023-08-08T06:10:04;17.50;78.10
53962;DHT22;39868;53.398;6.564;2023-08-08T06:12:31;17.50;77.90
53962;DHT22;39868;53.398;6.564;2023-08-08T06:14:59;17.60;78.10
53962;DHT22;39868;53.398;6.564;2023-08-08T06:17:26;17.60;78.10
53962;DHT22;39868;53.398;6.564;2023-08-08T06:19:53;17.60;78.20
53962;DHT22;39868;53.398;6.564;2023-08-08T06:22:22;17.70;78.10
53962;DHT22;39868;53.398;6.564;2023-08-08T06:24:50;17.70;78.00
53962;DHT22;39868;53.398;6.564;2023-08-08T06:27:17;17.70;78.00
53962;DHT22;39868;53.398;6.564;2023-08-08T06:29:44;17.80;78.00
53962;DHT22;39868;53.398;6.564;2023-08-08T06:32:11;17.80;78.00
53962;DHT22;39868;53.398;6.564;2023-08-08T06:34:38;17.90;78.00
53962;DHT22;39868;53.398;6.564;2023-08-08T06:37:05;17.90;78.00
53962;DHT22;39868;53.398;6.564;2023-08-08T06:39:33;18.00;78.20
53962;DHT22;39868;53.398;6.564;2023-08-08T06:42:00;18.00;78.10
53962;DHT22;39868;53.398;6.564;2023-08-08T06:44:43;18.10;78.20
53962;DHT22;39868;53.398;6.564;2023-08-08T06:47:10;18.20;78.20
53962;DHT22;39868;53.398;6.564;2023-08-08T06:49:38;18.20;78.10
53962;DHT22;39868;53.398;6.564;2023-08-08T06:52:05;18.30;78.00
53962;DHT22;39868;53.398;6.564;2023-08-08T06:54:32;18.40;77.90
53962;DHT22;39868;53.398;6.564;2023-08-08T06:57:00;18.50;77.80
53962;DHT22;39868;53.398;6.564;2023-08-08T06:59:29;18.50;77.70
53962;DHT22;39868;53.398;6.564;2023-08-08T07:01:56;18.60;77.70
53962;DHT22;39868;53.398;6.564;2023-08-08T07:04:23;18.60;77.50
53962;DHT22;39868;53.398;6.564;2023-08-08T07:06:50;18.70;77.30
53962;DHT22;39868;53.398;6.564;2023-08-08T07:09:17;18.70;77.10
53962;DHT22;39868;53.398;6.564;2023-08-08T07:11:45;18.80;76.90
53962;DHT22;39868;53.398;6.564;2023-08-08T07:14:12;18.80;76.80
53962;DHT22;39868;53.398;6.564;2023-08-08T07:16:40;18.80;76.80
53962;DHT22;39868;53.398;6.564;2023-08-08T07:19:07;18.90;76.70
53962;DHT22;39868;53.398;6.564;2023-08-08T07:21:34;18.90;76.70
53962;DHT22;39868;53.398;6.564;2023-08-08T07:24:01;19.00;76.80
53962;DHT22;39868;53.398;6.564;2023-08-08T07:26:29;19.10;76.60
53962;DHT22;39868;53.398;6.564;2023-08-08T07:28:57;19.10;76.50
53962;DHT22;39868;53.398;6.564;2023-08-08T07:31:24;19.20;76.50
53962;DHT22;39868;53.398;6.564;2023-08-08T07:33:51;19.30;76.30
53962;DHT22;39868;53.398;6.564;2023-08-08T07:36:18;19.30;76.20
53962;DHT22;39868;53.398;6.564;2023-08-08T07:38:45;19.40;76.20
53962;DHT22;39868;53.398;6.564;2023-08-08T07:41:12;19.40;76.00
53962;DHT22;39868;53.398;6.564;2023-08-08T07:43:39;19.50;75.80
53962;DHT22;39868;53.398;6.564;2023-08-08T07:46:07;19.50;75.60
53962;DHT22;39868;53.398;6.564;2023-08-08T07:48:34;19.50;75.60
53962;DHT22;39868;53.398;6.564;2023-08-08T07:51:01;19.60;75.50
53962;DHT22;39868;53.398;6.564;2023-08-08T07:53:28;19.60;75.40
53962;DHT22;39868;53.398;6.564;2023-08-08T07:55:55;19.60;75.30
53962;DHT22;39868;53.398;6.564;2023-08-08T07:58:22;19.60;75.10
53962;DHT22;39868;53.398;6.564;2023-08-08T08:00:53;19.60;75.10
53962;DHT22;39868;53.398;6.564;2023-08-08T08:03:20;19.70;75.00
53962;DHT22;39868;53.398;6.564;2023-08-08T08:05:47;19.70;74.90
53962;DHT22;39868;53.398;6.564;2023-08-08T08:08:14;19.70;74.90
53962;DHT22;39868;53.398;6.564;2023-08-08T08:10:41;19.70;74.70
53962;DHT22;39868;53.398;6.564;2023-08-08T08:13:09;19.70;74.50
53962;DHT22;39868;53.398;6.564;2023-08-08T08:15:38;19.70;74.40
53962;DHT22;39868;53.398;6.564;2023-08-08T08:18:05;19.70;74.30
53962;DHT22;39868;53.398;6.564;2023-08-08T08:20:33;19.70;74.30
53962;DHT22;39868;53.398;6.564;2023-08-08T08:23:00;19.80;74.40
53962;DHT22;39868;53.398;6.564;2023-08-08T08:25:27;19.70;74.30
53962;DHT22;39868;53.398;6.564;2023-08-08T08:27:55;19.70;74.30
53962;DHT22;39868;53.398;6.564;2023-08-08T08:30:25;19.70;74.30
53962;DHT22;39868;53.398;6.564;2023-08-08T08:32:53;19.60;74.30
53962;DHT22;39868;53.398;6.564;2023-08-08T08:35:20;19.60;74.40
53962;DHT22;39868;53.398;6.564;2023-08-08T08:37:48;19.50;74.40
53962;DHT22;39868;53.398;6.564;2023-08-08T08:40:19;19.40;74.40
53962;DHT22;39868;53.398;6.564;2023-08-08T08:42:46;19.40;74.50
53962;DHT22;39868;53.398;6.564;2023-08-08T08:45:14;19.30;74.60
53962;DHT22;39868;53.398;6.564;2023-08-08T08:47:43;19.30;75.00
53962;DHT22;39868;53.398;6.564;2023-08-08T08:50:13;19.30;75.10
53962;DHT22;39868;53.398;6.564;2023-08-08T08:52:42;19.30;75.20
53962;DHT22;39868;53.398;6.564;2023-08-08T08:55:10;19.30;75.20
53962;DHT22;39868;53.398;6.564;2023-08-08T08:57:37;19.30;75.20
53962;DHT22;39868;53.398;6.564;2023-08-08T09:00:06;19.30;75.10
53962;DHT22;39868;53.398;6.564;2023-08-08T09:02:33;19.30;75.20
53962;DHT22;39868;53.398;6.564;2023-08-08T09:05:01;19.30;75.10
53962;DHT22;39868;53.398;6.564;2023-08-08T09:07:30;19.20;75.00
53962;DHT22;39868;53.398;6.564;2023-08-08T09:09:58;19.10;75.00
53962;DHT22;39868;53.398;6.564;2023-08-08T09:12:25;19.10;75.00
53962;DHT22;39868;53.398;6.564;2023-08-08T09:14:54;19.00;74.90
53962;DHT22;39868;53.398;6.564;2023-08-08T09:17:22;19.00;75.00
53962;DHT22;39868;53.398;6.564;2023-08-08T09:19:59;19.00;75.40
53962;DHT22;39868;53.398;6.564;2023-08-08T09:22:27;19.00;75.80
53962;DHT22;39868;53.398;6.564;2023-08-08T09:24:55;19.00;76.00
53962;DHT22;39868;53.398;6.564;2023-08-08T09:27:22;19.10;76.50
53962;DHT22;39868;53.398;6.564;2023-08-08T09:29:49;19.20;76.50
53962;DHT22;39868;53.398;6.564;2023-08-08T09:32:17;19.30;76.50
53962;DHT22;39868;53.398;6.564;2023-08-08T09:34:44;19.50;76.40
53962;DHT22;39868;53.398;6.564;2023-08-08T09:37:12;19.60;76.10
53962;DHT22;39868;53.398;6.564;2023-08-08T09:39:41;19.60;75.50
53962;DHT22;39868;53.398;6.564;2023-08-08T09:42:08;19.70;75.40
53962;DHT22;39868;53.398;6.564;2023-08-08T09:44:37;19.70;75.00
53962;DHT22;39868;53.398;6.564;2023-08-08T09:47:05;19.80;74.80
53962;DHT22;39868;53.398;6.564;2023-08-08T09:49:32;19.90;74.60
53962;DHT22;39868;53.398;6.564;2023-08-08T09:52:01;19.90;74.60
53962;DHT22;39868;53.398;6.564;2023-08-08T09:54:29;19.90;74.60
53962;DHT22;39868;53.398;6.564;2023-08-08T09:56:57;20.00;74.50
53962;DHT22;39868;53.398;6.564;2023-08-08T09:59:24;20.00;73.80
53962;DHT22;39868;53.398;6.564;2023-08-08T10:01:51;20.10;73.40
53962;DHT22;39868;53.398;6.564;2023-08-08T10:04:19;20.10;73.30
53962;DHT22;39868;53.398;6.564;2023-08-08T10:06:47;20.00;73.10
53962;DHT22;39868;53.398;6.564;2023-08-08T10:09:14;19.90;72.80
53962;DHT22;39868;53.398;6.564;2023-08-08T10:11:42;19.90;72.80
53962;DHT22;39868;53.398;6.564;2023-08-08T10:14:11;20.00;72.80
53962;DHT22;39868;53.398;6.564;2023-08-08T10:16:38;19.90;72.80
53962;DHT22;39868;53.398;6.564;2023-08-08T10:19:05;20.00;72.80
53962;DHT22;39868;53.398;6.564;2023-08-08T10:21:35;20.00;72.30
53962;DHT22;39868;53.398;6.564;2023-08-08T10:24:05;20.10;72.30
53962;DHT22;39868;53.398;6.564;2023-08-08T10:26:33;20.10;71.90
53962;DHT22;39868;53.398;6.564;2023-08-08T10:29:01;20.20;72.00
53962;DHT22;39868;53.398;6.564;2023-08-08T10:31:32;20.20;72.00
53962;DHT22;39868;53.398;6.564;2023-08-08T10:34:01;20.30;71.90
53962;DHT22;39868;53.398;6.564;2023-08-08T10:36:42;20.30;71.80
53962;DHT22;39868;53.398;6.564;2023-08-08T10:39:16;20.30;71.80
53962;DHT22;39868;53.398;6.564;2023-08-08T10:41:47;20.40;71.00
53962;DHT22;39868;53.398;6.564;2023-08-08T10:44:21;20.40;70.80
53962;DHT22;39868;53.398;6.564;2023-08-08T10:46:49;20.40;70.50
53962;DHT22;39868;53.398;6.564;2023-08-08T10:49:17;20.40;70.40
53962;DHT22;39868;53.398;6.564;2023-08-08T10:51:45;20.50;70.30
53962;DHT22;39868;53.398;6.564;2023-08-08T10:54:23;20.50;70.30
53962;DHT22;39868;53.398;6.564;2023-08-08T10:56:55;20.50;70.20
53962;DHT22;39868;53.398;6.564;2023-08-08T10:59:24;20.60;70.30
53962;DHT22;39868;53.398;6.564;2023-08-08T11:01:52;20.70;70.30
53962;DHT22;39868;53.398;6.564;2023-08-08T11:04:22;20.70;70.00
53962;DHT22;39868;53.398;6.564;2023-08-08T11:06:53;20.70;69.80
53962;DHT22;39868;53.398;6.564;2023-08-08T11:09:21;20.80;69.60
53962;DHT22;39868;53.398;6.564;2023-08-08T11:11:48;20.80;69.70
53962;DHT22;39868;53.398;6.564;2023-08-08T11:14:16;20.80;69.80
53962;DHT22;39868;53.398;6.564;2023-08-08T11:16:44;20.90;69.20
53962;DHT22;39868;53.398;6.564;2023-08-08T11:19:12;20.90;68.90
53962;DHT22;39868;53.398;6.564;2023-08-08T11:21:40;20.90;68.70
53962;DHT22;39868;53.398;6.564;2023-08-08T11:24:08;20.90;69.00
53962;DHT22;39868;53.398;6.564;2023-08-08T11:26:36;20.90;69.30
53962;DHT22;39868;53.398;6.564;2023-08-08T11:29:04;21.00;69.10
53962;DHT22;39868;53.398;6.564;2023-08-08T11:31:35;21.00;69.00
53962;DHT22;39868;53.398;6.564;2023-08-08T11:34:03;21.00;68.50
53962;DHT22;39868;53.398;6.564;2023-08-08T11:36:32;21.00;68.40
53962;DHT22;39868;53.398;6.564;2023-08-08T11:39:00;20.90;68.20
53962;DHT22;39868;53.398;6.564;2023-08-08T11:41:27;20.90;67.80
53962;DHT22;39868;53.398;6.564;2023-08-08T11:43:55;20.80;68.00
53962;DHT22;39868;53.398;6.564;2023-08-08T11:46:22;20.80;67.90
53962;DHT22;39868;53.398;6.564;2023-08-08T11:48:51;20.70;67.90
53962;DHT22;39868;53.398;6.564;2023-08-08T11:51:18;20.70;68.00
53962;DHT22;39868;53.398;6.564;2023-08-08T11:53:52;20.60;68.30
53962;DHT22;39868;53.398;6.564;2023-08-08T11:56:19;20.60;68.50
53962;DHT22;39868;53.398;6.564;2023-08-08T11:58:49;20.50;68.60
53962;DHT22;39868;53.398;6.564;2023-08-08T12:01:16;20.50;68.70
53962;DHT22;39868;53.398;6.564;2023-08-08T12:03:46;20.50;68.80
53962;DHT22;39868;53.398;6.564;2023-08-08T12:06:17;20.50;69.00
53962;DHT22;39868;53.398;6.564;2023-08-08T12:08:45;20.50;68.70
53962;DHT22;39868;53.398;6.564;2023-08-08T12:11:12;20.50;68.50
53962;DHT22;39868;53.398;6.564;2023-08-08T12:13:40;20.50;68.70
53962;DHT22;39868;53.398;6.564;2023-08-08T12:16:08;20.50;68.60
53962;DHT22;39868;53.398;6.564;2023-08-08T12:18:43;20.50;68.30
53962;DHT22;39868;53.398;6.564;2023-08-08T12:21:11;20.50;68.20
53962;DHT22;39868;53.398;6.564;2023-08-08T12:23:38;20.60;68.30
53962;DHT22;39868;53.398;6.564;2023-08-08T12:26:06;20.60;68.30
53962;DHT22;39868;53.398;6.564;2023-08-08T12:28:34;20.70;68.50
53962;DHT22;39868;53.398;6.564;2023-08-08T12:31:01;20.80;68.50
53962;DHT22;39868;53.398;6.564;2023-08-08T12:33:28;20.90;68.50
53962;DHT22;39868;53.398;6.564;2023-08-08T12:35:55;21.00;68.00
53962;DHT22;39868;53.398;6.564;2023-08-08T12:38:23;21.10;67.50
53962;DHT22;39868;53.398;6.564;2023-08-08T12:40:50;21.20;68.20
53962;DHT22;39868;53.398;6.564;2023-08-08T12:43:17;21.30;67.90
53962;DHT22;39868;53.398;6.564;2023-08-08T12:45:45;21.40;67.60
53962;DHT22;39868;53.398;6.564;2023-08-08T12:48:12;21.50;67.10
53962;DHT22;39868;53.398;6.564;2023-08-08T12:50:39;21.70;67.00
53962;DHT22;39868;53.398;6.564;2023-08-08T12:53:07;21.70;66.10
53962;DHT22;39868;53.398;6.564;2023-08-08T12:55:34;21.80;66.00
53962;DHT22;39868;53.398;6.564;2023-08-08T12:58:02;21.90;65.80
53962;DHT22;39868;53.398;6.564;2023-08-08T13:00:29;22.00;65.60
53962;DHT22;39868;53.398;6.564;2023-08-08T13:02:56;22.00;65.60
53962;DHT22;39868;53.398;6.564;2023-08-08T13:05:25;22.00;65.10
53962;DHT22;39868;53.398;6.564;2023-08-08T13:07:52;22.10;65.30
53962;DHT22;39868;53.398;6.564;2023-08-08T13:10:19;22.10;65.30
53962;DHT22;39868;53.398;6.564;2023-08-08T13:12:47;22.10;65.10
53962;DHT22;39868;53.398;6.564;2023-08-08T13:15:14;22.20;64.70
53962;DHT22;39868;53.398;6.564;2023-08-08T13:17:42;22.20;64.80
53962;DHT22;39868;53.398;6.564;2023-08-08T13:20:09;22.30;65.00
53962;DHT22;39868;53.398;6.564;2023-08-08T13:22:36;22.30;64.80
53962;DHT22;39868;53.398;6.564;2023-08-08T13:25:04;22.40;64.60
53962;DHT22;39868;53.398;6.564;2023-08-08T13:27:32;22.40;64.90
53962;DHT22;39868;53.398;6.564;2023-08-08T13:29:59;22.40;64.40
53962;DHT22;39868;53.398;6.564;2023-08-08T13:32:26;22.50;64.00
53962;DHT22;39868;53.398;6.564;2023-08-08T13:34:54;22.50;63.90
53962;DHT22;39868;53.398;6.564;2023-08-08T13:37:21;22.60;63.90
53962;DHT22;39868;53.398;6.564;2023-08-08T13:39:48;22.60;64.00
53962;DHT22;39868;53.398;6.564;2023-08-08T13:42:15;22.70;63.90
53962;DHT22;39868;53.398;6.564;2023-08-08T13:44:42;22.60;63.40
53962;DHT22;39868;53.398;6.564;2023-08-08T13:47:09;22.70;63.10
53962;DHT22;39868;53.398;6.564;2023-08-08T13:49:36;22.70;62.90
53962;DHT22;39868;53.398;6.564;2023-08-08T13:52:03;22.70;63.30
53962;DHT22;39868;53.398;6.564;2023-08-08T13:54:31;22.70;63.30
53962;DHT22;39868;53.398;6.564;2023-08-08T13:56:58;22.70;63.20
53962;DHT22;39868;53.398;6.564;2023-08-08T13:59:25;22.80;62.80
53962;DHT22;39868;53.398;6.564;2023-08-08T14:01:53;22.80;62.50
53962;DHT22;39868;53.398;6.564;2023-08-08T14:04:20;22.80;62.50
53962;DHT22;39868;53.398;6.564;2023-08-08T14:06:47;22.90;62.80
53962;DHT22;39868;53.398;6.564;2023-08-08T14:09:14;23.00;61.90
53962;DHT22;39868;53.398;6.564;2023-08-08T14:11:45;23.00;62.00
53962;DHT22;39868;53.398;6.564;2023-08-08T14:14:12;22.90;61.60
53962;DHT22;39868;53.398;6.564;2023-08-08T14:16:39;22.80;61.20
53962;DHT22;39868;53.398;6.564;2023-08-08T14:19:06;22.70;60.90
53962;DHT22;39868;53.398;6.564;2023-08-08T14:21:34;22.70;60.80
53962;DHT22;39868;53.398;6.564;2023-08-08T14:24:01;22.70;61.30
53962;DHT22;39868;53.398;6.564;2023-08-08T14:26:30;22.70;61.40
53962;DHT22;39868;53.398;6.564;2023-08-08T14:28:57;22.70;61.20
53962;DHT22;39868;53.398;6.564;2023-08-08T14:31:24;22.70;61.20
53962;DHT22;39868;53.398;6.564;2023-08-08T14:33:51;22.70;61.10
53962;DHT22;39868;53.398;6.564;2023-08-08T14:36:19;22.80;61.10
53962;DHT22;39868;53.398;6.564;2023-08-08T14:38:46;22.90;61.60
53962;DHT22;39868;53.398;6.564;2023-08-08T14:41:13;22.90;60.90
53962;DHT22;39868;53.398;6.564;2023-08-08T14:43:40;23.00;60.60
53962;DHT22;39868;53.398;6.564;2023-08-08T14:46:07;23.00;60.20
53962;DHT22;39868;53.398;6.564;2023-08-08T14:48:34;23.10;60.20
53962;DHT22;39868;53.398;6.564;2023-08-08T14:51:01;23.10;59.90
53962;DHT22;39868;53.398;6.564;2023-08-08T14:53:29;23.10;60.20
53962;DHT22;39868;53.398;6.564;2023-08-08T14:55:56;23.10;59.80
53962;DHT22;39868;53.398;6.564;2023-08-08T14:58:23;23.10;59.60
53962;DHT22;39868;53.398;6.564;2023-08-08T15:00:52;23.10;59.30
53962;DHT22;39868;53.398;6.564;2023-08-08T15:03:22;23.10;59.80
53962;DHT22;39868;53.398;6.564;2023-08-08T15:05:50;23.10;59.10
53962;DHT22;39868;53.398;6.564;2023-08-08T15:08:17;23.10;58.90
53962;DHT22;39868;53.398;6.564;2023-08-08T15:10:45;23.10;58.70
53962;DHT22;39868;53.398;6.564;2023-08-08T15:13:12;23.10;58.60
53962;DHT22;39868;53.398;6.564;2023-08-08T15:15:39;23.10;58.70
53962;DHT22;39868;53.398;6.564;2023-08-08T15:18:06;23.10;58.80
53962;DHT22;39868;53.398;6.564;2023-08-08T15:20:33;23.10;58.90
53962;DHT22;39868;53.398;6.564;2023-08-08T15:23:00;23.10;58.40
53962;DHT22;39868;53.398;6.564;2023-08-08T15:25:27;23.10;58.60
53962;DHT22;39868;53.398;6.564;2023-08-08T15:27:55;23.10;58.50
53962;DHT22;39868;53.398;6.564;2023-08-08T15:30:22;23.10;58.40
53962;DHT22;39868;53.398;6.564;2023-08-08T15:32:49;23.00;57.90
53962;DHT22;39868;53.398;6.564;2023-08-08T15:35:16;23.00;58.10
53962;DHT22;39868;53.398;6.564;2023-08-08T15:37:43;22.90;58.00